Pagina principale
METAR-TAF:

METAR-TAF

Aeroporti :

Aeroporto di Sofia

Sofia, Bulgaria

latitudine: 42-39N, longitudine: 023-23E, altezza: 586 m

Osservazione

Il bollettino è stato emesso 8 minuti fa, alle 17:30 UTC
Vento 8 kt da est/sud-est
Temperature 24°C
Umidità 54%
Pressione 1014 hPa
Visibilità 10 km o più
nessuna nube inferiore a 1500 m e nessun cumulonembo

METAR: LBSF 141730Z 12008KT CAVOK 24/14 Q1014 NOSIG

Ora: 20:38 (17:38 UTC)

Previsione

Il bollettino è stato emesso 38 minuti fa, alle 17:00 UTC
Previsione valida dal 14 alle 18 UTC al 15 alle 18 UTC
Vento 10 kt da est/sud-est
Visibilità 10 km o più
nessuna nube inferiore a 1500 m e nessun cumulonembo
Evoluzione graduale
dal 14 alle 20 UTC al 14 alle 22 UTC
Vento 4 kt da direzioni variabili
Evoluzione graduale
dal 15 alle 09 UTC al 15 alle 11 UTC
Vento 10 kt da sud/sud-est

TAF: LBSF 141700Z 1418/1518 12010KT CAVOK BECMG 1420/1422 VRB04KT BECMG 1509/1511 15010KT

Osservazioni e previsioni meteorologiche di più di 4000 aeroporti (messaggi METAR e TAF).

Le stazioni disponibili sono rappresentate dai dischi gialli e rossi sulla carta.

Puntare il mouse per vedere il nome della stazione.

Clicca sopra per visualizzare le osservazioni e previsioni meteorologiche.

Per cambiare la mappa : fare clic sui pulsanti verdi con una croce nera per ingrandire, il pulsante verde con un trattino per diminuire, o sulla freccia verde per le mappe adiacenti.


METAR-TAF: